createdAt,value
2017-11-27T00:01:48.330Z,101234.38
2017-11-27T00:04:16.248Z,101230.83
2017-11-27T00:06:44.158Z,101229.91
2017-11-27T00:09:12.084Z,101239.55
2017-11-27T00:11:40.089Z,101237.27
2017-11-27T00:14:08.022Z,101237.40
2017-11-27T00:16:35.951Z,101240.19
2017-11-27T00:19:04.261Z,101235.87
2017-11-27T00:21:32.181Z,101236.41
2017-11-27T00:24:00.485Z,101234.30
2017-11-27T00:26:28.411Z,101240.46
2017-11-27T00:28:56.334Z,101238.89
2017-11-27T00:31:24.256Z,101239.88
2017-11-27T00:33:52.169Z,101242.41
2017-11-27T00:36:20.124Z,101252.11
2017-11-27T00:38:48.033Z,101256.57
2017-11-27T00:41:15.974Z,101253.06
2017-11-27T00:43:43.881Z,101259.40
2017-11-27T00:46:11.794Z,101254.91
2017-11-27T00:48:39.718Z,101255.55
2017-11-27T00:51:07.621Z,101255.17
2017-11-27T00:53:35.937Z,101261.68
2017-11-27T00:56:03.846Z,101261.68
2017-11-27T00:58:31.770Z,101259.50
2017-11-27T01:00:59.725Z,101266.00
2017-11-27T01:03:27.658Z,101265.13
2017-11-27T01:05:55.955Z,101269.55
2017-11-27T01:08:23.867Z,101272.52
2017-11-27T01:10:51.786Z,101270.95
2017-11-27T01:13:19.712Z,101273.47
2017-11-27T01:15:47.650Z,101276.94
2017-11-27T01:18:15.610Z,101269.78
2017-11-27T01:20:43.525Z,101274.18
2017-11-27T01:23:11.459Z,101273.91
2017-11-27T01:25:39.465Z,101268.70
2017-11-27T01:28:07.380Z,101265.84
2017-11-27T01:30:35.282Z,101260.18
2017-11-27T01:33:03.201Z,101265.46
2017-11-27T01:35:31.502Z,101272.92
2017-11-27T01:37:59.438Z,101269.75
2017-11-27T01:40:27.778Z,101267.87
2017-11-27T01:42:55.702Z,101271.45
2017-11-27T01:45:23.623Z,101266.62
2017-11-27T01:47:51.532Z,101272.03
2017-11-27T01:50:19.473Z,101269.75
2017-11-27T01:52:47.394Z,101270.87
2017-11-27T01:55:15.360Z,101273.13
2017-11-27T01:57:43.287Z,101278.54
2017-11-27T02:00:11.622Z,101272.23
2017-11-27T02:02:39.561Z,101273.98
2017-11-27T02:05:07.843Z,101275.78
2017-11-27T02:07:35.761Z,101276.12
2017-11-27T02:10:03.678Z,101270.81
2017-11-27T02:12:31.649Z,101271.86
2017-11-27T02:14:59.567Z,101278.13
2017-11-27T02:17:27.486Z,101275.48
2017-11-27T02:19:55.418Z,101281.50
2017-11-27T02:22:23.744Z,101287.33
2017-11-27T02:24:51.753Z,101284.50
2017-11-27T02:27:19.675Z,101291.22
2017-11-27T02:29:47.589Z,101291.31
2017-11-27T02:32:15.500Z,101285.90
2017-11-27T02:34:43.451Z,101294.11
2017-11-27T02:37:11.356Z,101286.84
2017-11-27T02:39:39.273Z,101288.41
2017-11-27T02:42:07.581Z,101288.11
2017-11-27T02:44:35.495Z,101287.26
2017-11-27T02:47:03.427Z,101287.47
2017-11-27T02:49:31.335Z,101284.44
2017-11-27T02:51:59.256Z,101282.39
2017-11-27T02:54:27.175Z,101289.27
2017-11-27T02:56:55.119Z,101280.48
2017-11-27T02:59:23.029Z,101286.95
2017-11-27T03:01:51.366Z,101285.45
2017-11-27T03:04:19.285Z,101290.25
2017-11-27T03:06:48.097Z,101284.77
2017-11-27T03:09:16.017Z,101289.88
2017-11-27T03:11:43.935Z,101297.13
2017-11-27T03:14:11.862Z,101299.30
2017-11-27T03:16:40.186Z,101289.34
2017-11-27T03:19:08.091Z,101286.27
2017-11-27T03:21:36.012Z,101291.63
2017-11-27T03:24:03.929Z,101287.56
2017-11-27T03:26:31.874Z,101283.92
2017-11-27T03:28:59.875Z,101285.02
2017-11-27T03:31:28.207Z,101276.97
2017-11-27T03:33:56.121Z,101277.61
2017-11-27T03:36:24.036Z,101280.61
2017-11-27T03:38:51.950Z,101284.26
2017-11-27T03:41:19.896Z,101283.92
2017-11-27T03:43:47.811Z,101290.86
2017-11-27T03:46:16.119Z,101286.81
2017-11-27T03:48:44.027Z,101282.95
2017-11-27T03:51:11.953Z,101283.39
2017-11-27T03:53:39.915Z,101291.46
2017-11-27T03:56:07.870Z,101285.34
2017-11-27T03:58:35.798Z,101281.40
2017-11-27T04:01:03.716Z,101271.76
2017-11-27T04:03:31.710Z,101282.05
2017-11-27T04:05:59.626Z,101266.69
2017-11-27T04:08:27.967Z,101256.33
2017-11-27T04:10:55.903Z,101257.05
2017-11-27T04:13:23.846Z,101259.66
2017-11-27T04:15:52.154Z,101259.99
2017-11-27T04:18:20.173Z,101262.81
2017-11-27T04:20:48.096Z,101268.70
2017-11-27T04:23:16.018Z,101267.63
2017-11-27T04:25:44.325Z,101263.34
2017-11-27T04:28:12.238Z,101261.52
2017-11-27T04:30:40.190Z,101265.38
2017-11-27T04:33:08.101Z,101268.62
2017-11-27T04:35:36.407Z,101269.95
2017-11-27T04:38:04.338Z,101273.02
2017-11-27T04:40:32.654Z,101262.05
2017-11-27T04:43:00.573Z,101264.20
2017-11-27T04:45:28.516Z,101266.95
2017-11-27T04:47:56.483Z,101265.16
2017-11-27T04:50:24.393Z,101261.03
2017-11-27T04:52:52.702Z,101266.38
2017-11-27T04:55:20.625Z,101260.45
2017-11-27T04:57:48.536Z,101268.30
2017-11-27T05:00:16.455Z,101270.98
2017-11-27T05:02:44.395Z,101272.16
2017-11-27T05:05:12.313Z,101277.34
2017-11-27T05:07:40.631Z,101271.70
2017-11-27T05:10:08.598Z,101272.62
2017-11-27T05:12:36.565Z,101270.71
2017-11-27T05:15:04.473Z,101267.69
2017-11-27T05:17:32.401Z,101264.13
2017-11-27T05:20:00.372Z,101271.48
2017-11-27T05:22:28.282Z,101262.48
2017-11-27T05:24:56.405Z,101263.11
2017-11-27T05:27:24.346Z,101264.37
2017-11-27T05:29:52.817Z,101267.73
2017-11-27T05:32:20.750Z,101270.73
2017-11-27T05:34:48.673Z,101269.69
2017-11-27T05:37:16.993Z,101269.06
2017-11-27T05:39:44.922Z,101267.87
2017-11-27T05:42:12.858Z,101270.00
2017-11-27T05:44:40.792Z,101266.94
2017-11-27T05:47:08.857Z,101273.03
2017-11-27T05:49:36.774Z,101266.69
2017-11-27T05:52:04.694Z,101271.38
2017-11-27T05:54:32.829Z,101265.91
2017-11-27T05:57:01.158Z,101262.18
2017-11-27T05:59:29.064Z,101263.98
2017-11-27T06:01:56.994Z,101260.61
2017-11-27T06:04:25.028Z,101256.95
2017-11-27T06:06:52.999Z,101259.72
2017-11-27T06:09:20.949Z,101254.27
2017-11-27T06:11:49.357Z,101249.96
2017-11-27T06:14:17.266Z,101244.47
2017-11-27T06:16:45.194Z,101259.44
2017-11-27T06:19:13.119Z,101250.13
2017-11-27T06:21:41.026Z,101246.27
2017-11-27T06:24:08.985Z,101252.95
2017-11-27T06:26:37.099Z,101252.19
2017-11-27T06:29:05.009Z,101254.63
2017-11-27T06:31:33.330Z,101261.97
2017-11-27T06:34:01.228Z,101268.20
2017-11-27T06:36:29.170Z,101266.45
2017-11-27T06:38:57.074Z,101264.58
2017-11-27T06:41:24.987Z,101265.97
2017-11-27T06:43:52.912Z,101264.39
2017-11-27T06:46:20.846Z,101265.02
2017-11-27T06:48:48.749Z,101265.16
2017-11-27T06:51:16.724Z,101260.63
2017-11-27T06:53:44.641Z,101258.20
2017-11-27T06:56:12.576Z,101273.48
2017-11-27T06:58:40.920Z,101260.34
2017-11-27T07:01:08.829Z,101274.55
2017-11-27T07:03:36.764Z,101255.86
2017-11-27T07:06:04.670Z,101271.99
2017-11-27T07:08:32.599Z,101269.59
2017-11-27T07:11:00.766Z,101272.17
2017-11-27T07:13:28.688Z,101266.93
2017-11-27T07:15:56.617Z,101265.28
2017-11-27T07:18:24.546Z,101267.33
2017-11-27T07:20:52.463Z,101264.73
2017-11-27T07:23:20.817Z,101267.64
2017-11-27T07:25:48.741Z,101264.08
2017-11-27T07:28:16.653Z,101267.20
2017-11-27T07:30:44.568Z,101253.80
2017-11-27T07:33:12.490Z,101249.91
2017-11-27T07:35:40.419Z,101250.45
2017-11-27T07:38:13.805Z,101247.02
2017-11-27T07:40:41.738Z,101242.58
2017-11-27T07:43:10.116Z,101234.86
2017-11-27T07:45:38.459Z,101242.03
2017-11-27T07:48:06.393Z,101233.05
2017-11-27T07:50:34.316Z,101234.70
2017-11-27T07:53:02.233Z,101227.20
2017-11-27T07:55:30.261Z,101231.53
2017-11-27T07:57:58.173Z,101225.98
2017-11-27T08:00:26.195Z,101231.84
2017-11-27T08:02:54.097Z,101233.86
2017-11-27T08:05:22.045Z,101229.05
2017-11-27T08:07:50.346Z,101221.80
2017-11-27T08:10:18.277Z,101227.23
2017-11-27T08:12:46.202Z,101233.39
2017-11-27T08:15:14.113Z,101217.36
2017-11-27T08:17:42.041Z,101218.05
2017-11-27T08:20:09.957Z,101216.38
2017-11-27T08:22:37.878Z,101223.48
2017-11-27T08:25:05.856Z,101215.94
2017-11-27T08:27:33.764Z,101216.16
2017-11-27T08:30:02.093Z,101199.39
2017-11-27T08:32:30.029Z,101198.53
2017-11-27T08:34:58.344Z,101193.17
2017-11-27T08:37:26.272Z,101182.70
2017-11-27T08:39:54.227Z,101193.33
2017-11-27T08:42:22.556Z,101193.73
2017-11-27T08:44:50.475Z,101190.97
2017-11-27T08:47:18.863Z,101188.73
2017-11-27T08:49:47.213Z,101186.16
2017-11-27T08:52:15.135Z,101192.09
2017-11-27T08:54:43.054Z,101194.64
2017-11-27T08:57:10.973Z,101189.61
2017-11-27T08:59:38.882Z,101178.66
2017-11-27T09:02:06.801Z,101183.49
2017-11-27T09:04:34.719Z,101186.17
2017-11-27T09:07:02.723Z,101188.93
2017-11-27T09:09:31.036Z,101178.67
2017-11-27T09:11:58.956Z,101179.18
2017-11-27T09:14:27.280Z,101168.83
2017-11-27T09:16:55.289Z,101162.39
2017-11-27T09:19:23.198Z,101165.57
2017-11-27T09:21:51.106Z,101159.79
2017-11-27T09:24:19.016Z,101153.91
2017-11-27T09:26:47.890Z,101151.68
2017-11-27T09:29:16.190Z,101148.06
2017-11-27T09:31:44.129Z,101139.67
2017-11-27T09:34:12.035Z,101152.30
2017-11-27T09:36:39.953Z,101142.56
2017-11-27T09:39:07.944Z,101147.75
2017-11-27T09:41:36.252Z,101139.66
2017-11-27T09:44:04.155Z,101138.86
2017-11-27T09:46:32.071Z,101127.30
2017-11-27T09:49:00.405Z,101128.30
2017-11-27T09:51:28.315Z,101118.26
2017-11-27T09:53:56.224Z,101114.80
2017-11-27T09:56:24.142Z,101114.98
2017-11-27T09:58:52.490Z,101118.34
2017-11-27T10:01:20.470Z,101111.20
2017-11-27T10:03:48.436Z,101104.97
2017-11-27T10:06:16.373Z,101095.23
2017-11-27T10:08:44.292Z,101093.96
2017-11-27T10:11:12.619Z,101090.66
2017-11-27T10:13:40.533Z,101083.42
2017-11-27T10:16:08.489Z,101070.02
2017-11-27T10:18:36.394Z,101065.27
2017-11-27T10:21:04.302Z,101065.08
2017-11-27T10:23:32.205Z,101061.66
2017-11-27T10:26:00.533Z,101051.38
2017-11-27T10:28:28.550Z,101050.23
2017-11-27T10:30:56.461Z,101047.23
2017-11-27T10:33:24.371Z,101042.94
2017-11-27T10:35:52.308Z,101033.94
2017-11-27T10:38:20.209Z,101028.61
2017-11-27T10:40:48.149Z,101021.59
2017-11-27T10:43:16.152Z,101017.60
2017-11-27T10:45:44.068Z,101010.14
2017-11-27T10:48:12.015Z,101007.50
2017-11-27T10:50:39.922Z,101004.48
2017-11-27T10:53:07.850Z,101003.83
2017-11-27T10:55:36.198Z,100998.63
2017-11-27T10:58:04.131Z,100996.36
2017-11-27T11:00:37.618Z,101002.27
2017-11-27T11:03:05.550Z,100983.40
2017-11-27T11:05:33.876Z,100989.63
2017-11-27T11:08:01.834Z,100987.63
2017-11-27T11:10:29.767Z,100990.93
2017-11-27T11:12:57.693Z,100989.77
2017-11-27T11:15:25.631Z,100984.77
2017-11-27T11:17:53.529Z,100980.34
2017-11-27T11:20:21.444Z,100965.20
2017-11-27T11:22:49.747Z,100965.40
2017-11-27T11:25:17.649Z,100960.13
2017-11-27T11:27:45.554Z,100960.44
2017-11-27T11:30:13.880Z,100958.00
2017-11-27T11:32:41.817Z,100948.75
2017-11-27T11:35:09.750Z,100942.66
2017-11-27T11:37:37.669Z,100933.16
2017-11-27T11:40:05.585Z,100944.03
2017-11-27T11:42:33.557Z,100925.37
2017-11-27T11:45:01.477Z,100920.11
2017-11-27T11:47:29.433Z,100921.92
2017-11-27T11:49:57.345Z,100905.07
2017-11-27T11:52:25.265Z,100902.36
2017-11-27T11:54:53.208Z,100892.40
2017-11-27T11:57:21.600Z,100897.36
2017-11-27T11:59:49.529Z,100892.80
2017-11-27T12:02:17.446Z,100889.80
2017-11-27T12:04:45.358Z,100887.28
2017-11-27T12:07:13.320Z,100878.01
2017-11-27T12:09:41.234Z,100865.63
2017-11-27T12:12:09.154Z,100871.31
2017-11-27T12:14:37.066Z,100858.04
2017-11-27T12:17:05.369Z,100861.36
2017-11-27T12:19:33.293Z,100849.92
2017-11-27T12:22:01.205Z,100840.34
2017-11-27T12:24:29.105Z,100837.24
2017-11-27T12:26:57.031Z,100834.72
2017-11-27T12:29:24.950Z,100841.48
2017-11-27T12:31:52.949Z,100837.48
2017-11-27T12:34:20.878Z,100830.34
2017-11-27T12:36:49.603Z,100824.16
2017-11-27T12:39:17.909Z,100814.41
2017-11-27T12:41:45.823Z,100816.20
2017-11-27T12:44:13.746Z,100815.42
2017-11-27T12:46:41.673Z,100805.58
2017-11-27T12:49:09.581Z,100801.79
2017-11-27T12:51:37.506Z,100802.41
2017-11-27T12:54:05.422Z,100803.28
2017-11-27T12:56:33.337Z,100793.86
2017-11-27T12:59:01.286Z,100789.37
2017-11-27T13:01:29.393Z,100786.70
2017-11-27T13:03:57.313Z,100774.88
2017-11-27T13:06:25.377Z,100771.63
2017-11-27T13:08:53.294Z,100767.98
2017-11-27T13:11:21.211Z,100757.31
2017-11-27T13:13:49.128Z,100752.82
2017-11-27T13:16:17.046Z,100742.95
2017-11-27T13:18:44.954Z,100743.12
2017-11-27T13:21:12.887Z,100734.25
2017-11-27T13:23:40.952Z,100735.20
2017-11-27T13:26:08.861Z,100716.16
2017-11-27T13:28:36.767Z,100711.06
2017-11-27T13:31:05.104Z,100713.50
2017-11-27T13:33:32.998Z,100707.42
2017-11-27T13:36:00.923Z,100699.61
2017-11-27T13:38:28.838Z,100690.63
2017-11-27T13:40:57.152Z,100690.34
2017-11-27T13:43:25.049Z,100680.77
2017-11-27T13:45:52.966Z,100692.73
2017-11-27T13:48:20.886Z,100686.72
2017-11-27T13:50:48.801Z,100680.23
2017-11-27T13:53:16.721Z,100670.45
2017-11-27T13:55:44.637Z,100667.73
2017-11-27T13:58:12.562Z,100662.17
2017-11-27T14:00:40.496Z,100653.23
2017-11-27T14:03:08.416Z,100646.66
2017-11-27T14:05:36.791Z,100631.13
2017-11-27T14:08:04.706Z,100631.49
2017-11-27T14:10:32.606Z,100642.27
2017-11-27T14:13:00.513Z,100631.23
2017-11-27T14:15:28.829Z,100629.18
2017-11-27T14:17:56.742Z,100624.20
2017-11-27T14:20:25.068Z,100612.50
2017-11-27T14:22:52.975Z,100604.89
2017-11-27T14:25:21.304Z,100613.00
2017-11-27T14:27:49.220Z,100612.09
2017-11-27T14:30:17.143Z,100595.12
2017-11-27T14:32:45.134Z,100610.41
2017-11-27T14:35:13.072Z,100603.36
2017-11-27T14:37:40.974Z,100589.03
2017-11-27T14:40:08.880Z,100593.41
2017-11-27T14:42:36.805Z,100582.28
2017-11-27T14:45:04.707Z,100577.00
2017-11-27T14:47:33.043Z,100568.87
2017-11-27T14:50:00.976Z,100559.22
2017-11-27T14:52:28.889Z,100556.58
2017-11-27T14:54:56.796Z,100562.10
2017-11-27T14:57:25.100Z,100551.80
2017-11-27T14:59:53.016Z,100540.77
2017-11-27T15:02:21.024Z,100536.64
2017-11-27T15:04:48.942Z,100544.80
2017-11-27T15:07:16.868Z,100544.63
2017-11-27T15:09:44.805Z,100534.94
2017-11-27T15:12:12.722Z,100537.81
2017-11-27T15:14:40.733Z,100524.34
2017-11-27T15:17:08.646Z,100512.41
2017-11-27T15:19:36.545Z,100511.73
2017-11-27T15:22:04.457Z,100508.50
2017-11-27T15:24:32.759Z,100498.09
2017-11-27T15:27:00.665Z,100496.44
2017-11-27T15:29:28.575Z,100488.20
2017-11-27T15:31:56.894Z,100488.83
2017-11-27T15:34:24.802Z,100484.45
2017-11-27T15:36:52.726Z,100484.02
2017-11-27T15:39:20.635Z,100475.41
2017-11-27T15:41:48.552Z,100463.19
2017-11-27T15:44:16.459Z,100470.11
2017-11-27T15:46:44.392Z,100458.84
2017-11-27T15:49:12.299Z,100453.63
2017-11-27T15:51:40.224Z,100453.39
2017-11-27T15:54:08.119Z,100447.59
2017-11-27T15:56:36.049Z,100449.34
2017-11-27T15:59:03.962Z,100447.73
2017-11-27T16:01:31.872Z,100424.05
2017-11-27T16:04:00.190Z,100430.16
2017-11-27T16:06:28.101Z,100436.03
2017-11-27T16:08:56.427Z,100418.59
2017-11-27T16:11:24.350Z,100416.83
2017-11-27T16:13:52.658Z,100412.91
2017-11-27T16:16:20.579Z,100396.48
2017-11-27T16:18:48.504Z,100406.86
2017-11-27T16:21:16.419Z,100395.91
2017-11-27T16:23:44.369Z,100389.80
2017-11-27T16:26:12.290Z,100388.24
2017-11-27T16:28:40.210Z,100376.46
2017-11-27T16:31:08.205Z,100376.13
2017-11-27T16:33:36.516Z,100361.55
2017-11-27T16:36:04.511Z,100367.18
2017-11-27T16:38:32.448Z,100357.90
2017-11-27T16:41:00.361Z,100354.84
2017-11-27T16:43:28.270Z,100350.62
2017-11-27T16:45:56.579Z,100347.52
2017-11-27T16:48:24.539Z,100332.50
2017-11-27T16:50:52.456Z,100332.50
2017-11-27T16:53:20.368Z,100321.23
2017-11-27T16:55:48.281Z,100316.81
2017-11-27T16:58:16.213Z,100324.72
2017-11-27T17:00:44.226Z,100318.19
2017-11-27T17:03:12.152Z,100321.98
2017-11-27T17:05:40.068Z,100324.89
2017-11-27T17:08:07.974Z,100311.73
2017-11-27T17:10:35.877Z,100315.55
2017-11-27T17:13:03.784Z,100303.14
2017-11-27T17:15:32.099Z,100289.74
2017-11-27T17:17:59.993Z,100300.81
2017-11-27T17:20:27.935Z,100290.26
2017-11-27T17:22:55.849Z,100284.37
2017-11-27T17:25:23.775Z,100281.61
2017-11-27T17:27:51.687Z,100277.00
2017-11-27T17:30:19.604Z,100278.44
2017-11-27T17:32:47.517Z,100281.59
2017-11-27T17:35:15.445Z,100278.18
2017-11-27T17:37:43.415Z,100269.50
2017-11-27T17:40:11.344Z,100259.64
2017-11-27T17:42:39.657Z,100272.78
2017-11-27T17:45:07.554Z,100251.97
2017-11-27T17:47:35.473Z,100246.76
2017-11-27T17:50:04.385Z,100244.20
2017-11-27T17:52:32.290Z,100244.28
2017-11-27T17:55:00.189Z,100240.73
2017-11-27T17:57:28.518Z,100236.61
2017-11-27T17:59:56.513Z,100234.03
2017-11-27T18:02:24.442Z,100231.80
2017-11-27T18:04:52.367Z,100230.13
2017-11-27T18:07:20.676Z,100238.88
2017-11-27T18:09:48.574Z,100218.14
2017-11-27T18:12:16.493Z,100218.70
2017-11-27T18:14:44.400Z,100216.27
2017-11-27T18:17:12.415Z,100213.32
2017-11-27T18:19:40.766Z,100214.41
2017-11-27T18:22:08.695Z,100212.03
2017-11-27T18:24:36.667Z,100204.38
2017-11-27T18:27:04.634Z,100198.52
2017-11-27T18:29:32.729Z,100205.34
2017-11-27T18:32:00.715Z,100195.70
2017-11-27T18:34:28.654Z,100195.52
2017-11-27T18:36:56.586Z,100193.50
2017-11-27T18:39:24.508Z,100198.42
2017-11-27T18:41:52.477Z,100191.13
2017-11-27T18:44:20.400Z,100187.41
2017-11-27T18:46:48.634Z,100182.56
2017-11-27T18:49:16.542Z,100179.16
2017-11-27T18:51:44.461Z,100169.37
2017-11-27T18:54:12.365Z,100169.67
2017-11-27T18:56:40.693Z,100174.61
2017-11-27T18:59:08.626Z,100169.48
2017-11-27T19:01:36.556Z,100163.05
2017-11-27T19:04:04.462Z,100160.49
2017-11-27T19:06:32.374Z,100164.47
2017-11-27T19:09:00.311Z,100162.87
2017-11-27T19:11:28.299Z,100164.80
2017-11-27T19:13:56.221Z,100158.30
2017-11-27T19:16:24.524Z,100157.78
2017-11-27T19:18:52.430Z,100150.66
2017-11-27T19:21:20.344Z,100151.97
2017-11-27T19:23:48.258Z,100147.14
2017-11-27T19:26:16.184Z,100136.09
2017-11-27T19:28:44.085Z,100146.41
2017-11-27T19:31:11.996Z,100138.58
2017-11-27T19:33:40.311Z,100130.11
2017-11-27T19:36:08.272Z,100130.50
2017-11-27T19:38:36.196Z,100137.38
2017-11-27T19:41:04.127Z,100128.77
2017-11-27T19:43:32.141Z,100130.92
2017-11-27T19:46:00.475Z,100121.33
2017-11-27T19:48:28.412Z,100119.63
2017-11-27T19:50:56.330Z,100122.53
2017-11-27T19:53:24.240Z,100112.91
2017-11-27T19:55:52.159Z,100114.25
2017-11-27T19:58:20.105Z,100109.62
2017-11-27T20:00:48.057Z,100104.52
2017-11-27T20:03:15.986Z,100113.68
2017-11-27T20:05:43.918Z,100106.32
2017-11-27T20:08:11.826Z,100101.41
2017-11-27T20:10:39.745Z,100094.19
2017-11-27T20:13:07.697Z,100088.64
2017-11-27T20:15:35.656Z,100092.10
2017-11-27T20:18:03.956Z,100099.00
2017-11-27T20:20:31.880Z,100091.31
2017-11-27T20:22:59.786Z,100091.06
2017-11-27T20:25:27.701Z,100080.53
2017-11-27T20:27:55.670Z,100079.78
2017-11-27T20:30:23.615Z,100084.01
2017-11-27T20:32:51.625Z,100076.84
2017-11-27T20:35:19.613Z,100074.70
2017-11-27T20:37:47.581Z,100067.95
2017-11-27T20:40:15.893Z,100069.29
2017-11-27T20:42:43.825Z,100059.17
2017-11-27T20:45:11.761Z,100065.58
2017-11-27T20:47:39.694Z,100062.48
2017-11-27T20:50:07.756Z,100052.20
2017-11-27T20:52:35.687Z,100049.63
2017-11-27T20:55:03.614Z,100054.00
2017-11-27T20:57:31.552Z,100041.32
2017-11-27T20:59:59.470Z,100048.75
2017-11-27T21:02:27.399Z,100031.41
2017-11-27T21:04:55.334Z,100037.68
2017-11-27T21:07:23.725Z,100030.64
2017-11-27T21:09:52.022Z,100038.83
2017-11-27T21:12:19.945Z,100028.13
2017-11-27T21:14:47.854Z,100035.03
2017-11-27T21:17:16.000Z,100041.18
2017-11-27T21:19:44.305Z,100030.87
2017-11-27T21:22:12.231Z,100030.12
2017-11-27T21:24:40.147Z,100035.79
2017-11-27T21:27:08.075Z,100021.67
2017-11-27T21:29:36.471Z,100023.13
2017-11-27T21:32:04.788Z,100024.31
2017-11-27T21:34:32.711Z,100027.73
2017-11-27T21:37:01.026Z,100027.78
2017-11-27T21:39:28.952Z,100018.02
2017-11-27T21:41:57.265Z,100009.47
2017-11-27T21:44:25.202Z,100006.73
2017-11-27T21:46:53.523Z,99998.04
2017-11-27T21:49:21.462Z,100002.89
2017-11-27T21:51:49.381Z,100008.95
2017-11-27T21:54:17.356Z,100002.14
2017-11-27T21:56:45.283Z,100003.89
2017-11-27T21:59:13.209Z,99998.20
2017-11-27T22:01:41.132Z,99996.97
2017-11-27T22:04:09.033Z,99986.73
2017-11-27T22:06:36.945Z,99988.03
2017-11-27T22:09:04.857Z,99989.78
2017-11-27T22:11:32.808Z,99988.96
2017-11-27T22:14:00.731Z,99982.80
2017-11-27T22:16:29.041Z,99977.68
2017-11-27T22:18:56.958Z,99980.77
2017-11-27T22:21:24.920Z,99983.77
2017-11-27T22:23:52.825Z,99986.02
2017-11-27T22:26:20.774Z,99982.61
2017-11-27T22:28:49.086Z,99977.02
2017-11-27T22:31:16.989Z,99974.94
2017-11-27T22:33:44.912Z,99972.64
2017-11-27T22:36:12.828Z,99975.88
2017-11-27T22:38:40.756Z,99965.37
2017-11-27T22:41:08.676Z,99959.65
2017-11-27T22:43:36.612Z,99966.58
2017-11-27T22:46:04.602Z,99957.05
2017-11-27T22:48:32.510Z,99953.13
2017-11-27T22:51:00.423Z,99951.91
2017-11-27T22:53:28.337Z,99955.33
2017-11-27T22:55:56.750Z,99946.23
2017-11-27T22:58:24.672Z,99947.46
2017-11-27T23:00:52.993Z,99943.67
2017-11-27T23:03:20.898Z,99936.00
2017-11-27T23:05:48.815Z,99946.53
2017-11-27T23:08:16.713Z,99935.59
2017-11-27T23:10:44.618Z,99929.05
2017-11-27T23:13:12.555Z,99921.70
2017-11-27T23:15:40.471Z,99930.30
2017-11-27T23:18:08.386Z,99917.78
2017-11-27T23:20:36.293Z,99923.04
2017-11-27T23:23:04.602Z,99911.23
2017-11-27T23:25:32.505Z,99914.70
2017-11-27T23:28:00.412Z,99904.66
2017-11-27T23:30:28.736Z,99908.69
2017-11-27T23:32:56.633Z,99897.06
2017-11-27T23:35:24.612Z,99896.67
2017-11-27T23:37:52.528Z,99893.20
2017-11-27T23:40:20.429Z,99883.78
2017-11-27T23:42:48.337Z,99884.52
2017-11-27T23:45:16.255Z,99891.39
2017-11-27T23:47:44.168Z,99885.83
2017-11-27T23:50:12.484Z,99885.48
2017-11-27T23:52:40.406Z,99883.31
2017-11-27T23:55:08.709Z,99881.55
2017-11-27T23:57:36.621Z,99875.25
